sensor_id;sensor_type;location;lat;lon;timestamp;pressure;altitude;pressure_sealevel;temperature;humidity
55070;BME280;40967;52.070;8.596;2022-10-13T00:01:38;100952.19;;;8.54;79.44
55070;BME280;40967;52.070;8.596;2022-10-13T00:04:03;100946.44;;;8.50;79.30
55070;BME280;40967;52.070;8.596;2022-10-13T00:06:29;100949.16;;;8.50;79.11
55070;BME280;40967;52.070;8.596;2022-10-13T00:08:57;100952.09;;;8.49;79.32
55070;BME280;40967;52.070;8.596;2022-10-13T00:11:25;100943.31;;;8.42;78.92
55070;BME280;40967;52.070;8.596;2022-10-13T00:13:55;100958.00;;;8.46;78.82
55070;BME280;40967;52.070;8.596;2022-10-13T00:16:21;100946.53;;;8.39;79.78
55070;BME280;40967;52.070;8.596;2022-10-13T00:18:47;100952.66;;;8.34;79.95
55070;BME280;40967;52.070;8.596;2022-10-13T00:21:16;100948.56;;;8.32;80.18
55070;BME280;40967;52.070;8.596;2022-10-13T00:23:42;100946.13;;;8.30;80.04
55070;BME280;40967;52.070;8.596;2022-10-13T00:26:10;100950.13;;;8.28;79.95
55070;BME280;40967;52.070;8.596;2022-10-13T00:28:36;100933.56;;;8.24;79.87
55070;BME280;40967;52.070;8.596;2022-10-13T00:31:02;100950.34;;;8.26;79.83
55070;BME280;40967;52.070;8.596;2022-10-13T00:33:28;100935.91;;;8.21;80.04
55070;BME280;40967;52.070;8.596;2022-10-13T00:35:53;100939.53;;;8.26;79.46
55070;BME280;40967;52.070;8.596;2022-10-13T00:38:20;100940.00;;;8.23;79.62
55070;BME280;40967;52.070;8.596;2022-10-13T00:40:49;100939.53;;;8.26;79.59
55070;BME280;40967;52.070;8.596;2022-10-13T00:43:21;100944.59;;;8.23;79.75
55070;BME280;40967;52.070;8.596;2022-10-13T00:45:47;100941.06;;;8.22;80.46
55070;BME280;40967;52.070;8.596;2022-10-13T00:48:17;100941.31;;;8.21;80.24
55070;BME280;40967;52.070;8.596;2022-10-13T00:50:45;100937.22;;;8.18;80.97
55070;BME280;40967;52.070;8.596;2022-10-13T00:53:11;100949.06;;;8.17;80.60
55070;BME280;40967;52.070;8.596;2022-10-13T00:55:38;100940.97;;;8.17;81.05
55070;BME280;40967;52.070;8.596;2022-10-13T00:58:05;100927.69;;;7.99;81.05
55070;BME280;40967;52.070;8.596;2022-10-13T01:00:33;100947.94;;;8.13;82.20
55070;BME280;40967;52.070;8.596;2022-10-13T01:03:00;100943.59;;;8.12;81.74
55070;BME280;40967;52.070;8.596;2022-10-13T01:05:26;100920.00;;;8.07;81.88
55070;BME280;40967;52.070;8.596;2022-10-13T01:07:52;100929.75;;;8.08;81.87
55070;BME280;40967;52.070;8.596;2022-10-13T01:10:35;100923.38;;;8.15;81.55
55070;BME280;40967;52.070;8.596;2022-10-13T01:13:09;100923.91;;;8.17;81.14
55070;BME280;40967;52.070;8.596;2022-10-13T01:15:55;100922.53;;;8.14;81.79
55070;BME280;40967;52.070;8.596;2022-10-13T01:27:09;100912.06;;;8.18;81.35
55070;BME280;40967;52.070;8.596;2022-10-13T01:32:47;100896.19;;;8.21;81.68
55070;BME280;40967;52.070;8.596;2022-10-13T01:41:24;100890.31;;;8.24;81.66
55070;BME280;40967;52.070;8.596;2022-10-13T01:46:25;100890.88;;;8.26;81.13
55070;BME280;40967;52.070;8.596;2022-10-13T01:48:55;100885.47;;;8.26;81.65
55070;BME280;40967;52.070;8.596;2022-10-13T01:51:24;100891.72;;;8.27;81.33
55070;BME280;40967;52.070;8.596;2022-10-13T01:53:50;100889.25;;;8.25;81.04
55070;BME280;40967;52.070;8.596;2022-10-13T01:56:16;100877.00;;;8.23;80.87
55070;BME280;40967;52.070;8.596;2022-10-13T01:58:43;100881.38;;;8.24;81.45
55070;BME280;40967;52.070;8.596;2022-10-13T02:03:51;100878.56;;;8.19;81.35
55070;BME280;40967;52.070;8.596;2022-10-13T02:06:22;100876.94;;;8.18;81.15
55070;BME280;40967;52.070;8.596;2022-10-13T02:09:30;100873.41;;;8.17;81.34
55070;BME280;40967;52.070;8.596;2022-10-13T02:12:04;100859.81;;;8.12;81.54
55070;BME280;40967;52.070;8.596;2022-10-13T02:14:33;100848.75;;;8.14;81.61
55070;BME280;40967;52.070;8.596;2022-10-13T02:17:02;100851.94;;;8.11;82.14
55070;BME280;40967;52.070;8.596;2022-10-13T02:19:30;100856.53;;;8.10;81.84
55070;BME280;40967;52.070;8.596;2022-10-13T02:21:57;100847.28;;;8.06;81.98
55070;BME280;40967;52.070;8.596;2022-10-13T02:24:23;100858.44;;;8.10;81.84
55070;BME280;40967;52.070;8.596;2022-10-13T02:26:49;100857.03;;;8.07;82.14
55070;BME280;40967;52.070;8.596;2022-10-13T02:29:15;100851.38;;;8.08;82.97
55070;BME280;40967;52.070;8.596;2022-10-13T02:31:42;100849.16;;;8.05;82.61
55070;BME280;40967;52.070;8.596;2022-10-13T02:34:08;100844.34;;;8.07;82.56
55070;BME280;40967;52.070;8.596;2022-10-13T02:36:33;100846.53;;;8.11;83.38
55070;BME280;40967;52.070;8.596;2022-10-13T02:38:59;100850.06;;;8.11;83.52
55070;BME280;40967;52.070;8.596;2022-10-13T02:41:24;100849.81;;;8.13;83.17
55070;BME280;40967;52.070;8.596;2022-10-13T02:43:50;100847.94;;;8.13;83.80
55070;BME280;40967;52.070;8.596;2022-10-13T02:46:15;100849.56;;;8.14;84.02
55070;BME280;40967;52.070;8.596;2022-10-13T02:48:41;100847.44;;;8.16;84.40
55070;BME280;40967;52.070;8.596;2022-10-13T02:51:06;100848.81;;;8.19;83.95
55070;BME280;40967;52.070;8.596;2022-10-13T02:53:31;100833.84;;;8.11;84.15
55070;BME280;40967;52.070;8.596;2022-10-13T02:55:57;100828.78;;;8.15;83.96
55070;BME280;40967;52.070;8.596;2022-10-13T02:58:22;100831.16;;;8.11;83.75
55070;BME280;40967;52.070;8.596;2022-10-13T03:00:47;100840.47;;;8.20;84.35
55070;BME280;40967;52.070;8.596;2022-10-13T03:03:13;100841.53;;;8.19;84.33
55070;BME280;40967;52.070;8.596;2022-10-13T03:05:38;100846.00;;;8.25;84.26
55070;BME280;40967;52.070;8.596;2022-10-13T03:08:04;100846.56;;;8.27;84.44
55070;BME280;40967;52.070;8.596;2022-10-13T03:10:29;100847.38;;;8.28;84.92
55070;BME280;40967;52.070;8.596;2022-10-13T03:12:56;100843.38;;;8.30;84.82
55070;BME280;40967;52.070;8.596;2022-10-13T03:15:21;100851.25;;;8.32;84.95
55070;BME280;40967;52.070;8.596;2022-10-13T03:17:47;100845.59;;;8.33;84.85
55070;BME280;40967;52.070;8.596;2022-10-13T03:20:12;100852.41;;;8.36;85.48
55070;BME280;40967;52.070;8.596;2022-10-13T03:22:37;100841.59;;;8.36;85.26
55070;BME280;40967;52.070;8.596;2022-10-13T03:25:03;100839.94;;;8.35;86.04
55070;BME280;40967;52.070;8.596;2022-10-13T03:27:28;100843.47;;;8.35;85.20
55070;BME280;40967;52.070;8.596;2022-10-13T03:29:54;100853.53;;;8.40;85.77
55070;BME280;40967;52.070;8.596;2022-10-13T03:32:19;100839.34;;;8.33;86.03
55070;BME280;40967;52.070;8.596;2022-10-13T03:34:44;100846.81;;;8.42;86.56
55070;BME280;40967;52.070;8.596;2022-10-13T03:37:10;100837.56;;;8.38;86.69
55070;BME280;40967;52.070;8.596;2022-10-13T03:39:35;100851.72;;;8.45;86.89
55070;BME280;40967;52.070;8.596;2022-10-13T03:42:01;100848.75;;;8.47;87.03
55070;BME280;40967;52.070;8.596;2022-10-13T03:44:26;100825.03;;;8.32;86.90
55070;BME280;40967;52.070;8.596;2022-10-13T03:46:51;100847.94;;;8.46;86.01
55070;BME280;40967;52.070;8.596;2022-10-13T03:49:17;100845.00;;;8.48;86.89
55070;BME280;40967;52.070;8.596;2022-10-13T03:51:43;100842.31;;;8.48;86.34
55070;BME280;40967;52.070;8.596;2022-10-13T03:54:11;100841.22;;;8.49;86.55
55070;BME280;40967;52.070;8.596;2022-10-13T03:56:37;100843.69;;;8.50;86.17
55070;BME280;40967;52.070;8.596;2022-10-13T03:59:02;100832.88;;;8.50;85.95
55070;BME280;40967;52.070;8.596;2022-10-13T04:01:30;100833.94;;;8.49;86.08
55070;BME280;40967;52.070;8.596;2022-10-13T04:03:57;100840.47;;;8.53;87.09
55070;BME280;40967;52.070;8.596;2022-10-13T04:06:23;100842.13;;;8.54;86.39
55070;BME280;40967;52.070;8.596;2022-10-13T04:08:49;100838.09;;;8.57;87.33
55070;BME280;40967;52.070;8.596;2022-10-13T04:11:15;100827.19;;;8.52;87.42
55070;BME280;40967;52.070;8.596;2022-10-13T04:13:41;100824.25;;;8.53;87.75
55070;BME280;40967;52.070;8.596;2022-10-13T04:16:18;100810.41;;;8.50;87.62
55070;BME280;40967;52.070;8.596;2022-10-13T04:18:44;100820.75;;;8.53;88.70
55070;BME280;40967;52.070;8.596;2022-10-13T04:21:14;100827.28;;;8.57;89.39
55070;BME280;40967;52.070;8.596;2022-10-13T04:23:39;100820.56;;;8.59;89.28
55070;BME280;40967;52.070;8.596;2022-10-13T04:26:05;100817.34;;;8.62;89.20
55070;BME280;40967;52.070;8.596;2022-10-13T04:28:31;100814.13;;;8.65;89.67
55070;BME280;40967;52.070;8.596;2022-10-13T04:31:01;100806.59;;;8.67;89.75
55070;BME280;40967;52.070;8.596;2022-10-13T04:33:27;100815.28;;;8.69;89.89
55070;BME280;40967;52.070;8.596;2022-10-13T04:35:53;100814.25;;;8.70;89.94
55070;BME280;40967;52.070;8.596;2022-10-13T04:38:18;100808.88;;;8.75;89.36
55070;BME280;40967;52.070;8.596;2022-10-13T04:40:44;100809.47;;;8.77;89.07
55070;BME280;40967;52.070;8.596;2022-10-13T04:43:09;100812.47;;;8.81;88.84
55070;BME280;40967;52.070;8.596;2022-10-13T04:45:34;100809.75;;;8.81;89.30
55070;BME280;40967;52.070;8.596;2022-10-13T04:48:00;100818.50;;;8.88;88.92
55070;BME280;40967;52.070;8.596;2022-10-13T04:50:25;100802.28;;;8.88;89.14
55070;BME280;40967;52.070;8.596;2022-10-13T04:52:51;100796.63;;;8.89;88.98
55070;BME280;40967;52.070;8.596;2022-10-13T04:55:16;100811.34;;;8.98;90.38
55070;BME280;40967;52.070;8.596;2022-10-13T04:57:42;100802.16;;;8.99;89.87
55070;BME280;40967;52.070;8.596;2022-10-13T05:00:08;100801.66;;;9.02;89.92
55070;BME280;40967;52.070;8.596;2022-10-13T05:02:34;100790.50;;;8.99;90.93
55070;BME280;40967;52.070;8.596;2022-10-13T05:05:00;100795.72;;;9.05;91.47
55070;BME280;40967;52.070;8.596;2022-10-13T05:07:25;100789.25;;;9.06;90.74
55070;BME280;40967;52.070;8.596;2022-10-13T05:09:51;100787.13;;;9.08;91.31
55070;BME280;40967;52.070;8.596;2022-10-13T05:12:16;100780.06;;;9.07;91.84
55070;BME280;40967;52.070;8.596;2022-10-13T05:14:41;100787.91;;;9.09;91.49
55070;BME280;40967;52.070;8.596;2022-10-13T05:17:07;100782.25;;;9.10;91.55
55070;BME280;40967;52.070;8.596;2022-10-13T05:19:32;100783.91;;;9.11;91.74
55070;BME280;40967;52.070;8.596;2022-10-13T05:21:57;100782.03;;;9.12;90.96
55070;BME280;40967;52.070;8.596;2022-10-13T05:24:23;100775.22;;;9.09;90.35
55070;BME280;40967;52.070;8.596;2022-10-13T05:27:00;100773.38;;;9.15;89.74
55070;BME280;40967;52.070;8.596;2022-10-13T05:29:25;100760.09;;;9.13;89.98
55070;BME280;40967;52.070;8.596;2022-10-13T05:31:50;100773.19;;;9.22;89.69
55070;BME280;40967;52.070;8.596;2022-10-13T05:34:16;100777.03;;;9.26;90.04
55070;BME280;40967;52.070;8.596;2022-10-13T05:36:41;100767.25;;;9.25;90.24
55070;BME280;40967;52.070;8.596;2022-10-13T05:39:07;100772.19;;;9.28;89.86
55070;BME280;40967;52.070;8.596;2022-10-13T05:41:32;100765.69;;;9.29;90.17
55070;BME280;40967;52.070;8.596;2022-10-13T05:44:02;100761.09;;;9.29;90.29
55070;BME280;40967;52.070;8.596;2022-10-13T05:46:29;100752.09;;;9.24;90.09
55070;BME280;40967;52.070;8.596;2022-10-13T05:48:55;100762.19;;;9.33;89.85
55070;BME280;40967;52.070;8.596;2022-10-13T05:51:26;100761.97;;;9.35;89.05
55070;BME280;40967;52.070;8.596;2022-10-13T05:54:05;100761.44;;;9.38;89.00
55070;BME280;40967;52.070;8.596;2022-10-13T05:56:50;100764.16;;;9.38;89.01
55070;BME280;40967;52.070;8.596;2022-10-13T05:59:19;100764.16;;;9.38;89.14
55070;BME280;40967;52.070;8.596;2022-10-13T06:01:45;100767.78;;;9.48;89.67
55070;BME280;40967;52.070;8.596;2022-10-13T06:04:48;100770.53;;;9.53;90.12
55070;BME280;40967;52.070;8.596;2022-10-13T06:07:16;100762.72;;;9.57;90.05
55070;BME280;40967;52.070;8.596;2022-10-13T06:09:41;100760.88;;;9.62;90.33
55070;BME280;40967;52.070;8.596;2022-10-13T06:12:08;100762.22;;;9.65;90.11
55070;BME280;40967;52.070;8.596;2022-10-13T06:14:33;100766.06;;;9.69;90.04
55070;BME280;40967;52.070;8.596;2022-10-13T06:16:59;100756.91;;;9.75;89.92
55070;BME280;40967;52.070;8.596;2022-10-13T06:19:27;100759.69;;;9.80;90.12
55070;BME280;40967;52.070;8.596;2022-10-13T06:21:55;100754.78;;;9.82;90.03
55070;BME280;40967;52.070;8.596;2022-10-13T06:24:20;100761.06;;;9.87;90.36
55070;BME280;40967;52.070;8.596;2022-10-13T06:26:46;100746.91;;;9.80;90.14
55070;BME280;40967;52.070;8.596;2022-10-13T06:29:11;100760.31;;;9.92;89.85
55070;BME280;40967;52.070;8.596;2022-10-13T06:31:37;100756.00;;;9.96;89.65
55070;BME280;40967;52.070;8.596;2022-10-13T06:34:02;100763.63;;;9.99;90.12
55070;BME280;40967;52.070;8.596;2022-10-13T06:36:27;100748.97;;;10.00;90.30
55070;BME280;40967;52.070;8.596;2022-10-13T06:38:55;100760.41;;;10.07;89.97
55070;BME280;40967;52.070;8.596;2022-10-13T06:41:21;100753.69;;;10.09;89.66
55070;BME280;40967;52.070;8.596;2022-10-13T06:43:46;100753.19;;;10.12;89.79
55070;BME280;40967;52.070;8.596;2022-10-13T06:46:12;100748.84;;;10.16;89.91
55070;BME280;40967;52.070;8.596;2022-10-13T06:48:38;100708.88;;;10.02;89.87
55070;BME280;40967;52.070;8.596;2022-10-13T06:51:07;100728.25;;;10.15;89.77
55070;BME280;40967;52.070;8.596;2022-10-13T06:53:33;100742.16;;;10.29;89.73
55070;BME280;40967;52.070;8.596;2022-10-13T06:56:00;100738.34;;;10.25;89.49
55070;BME280;40967;52.070;8.596;2022-10-13T06:58:26;100748.44;;;10.35;89.14
55070;BME280;40967;52.070;8.596;2022-10-13T07:00:52;100746.53;;;10.35;88.97
55070;BME280;40967;52.070;8.596;2022-10-13T07:03:18;100757.41;;;10.40;88.73
55070;BME280;40967;52.070;8.596;2022-10-13T07:05:43;100735.16;;;10.38;88.67
55070;BME280;40967;52.070;8.596;2022-10-13T07:08:09;100741.72;;;10.47;88.53
55070;BME280;40967;52.070;8.596;2022-10-13T07:10:36;100738.75;;;10.49;88.39
55070;BME280;40967;52.070;8.596;2022-10-13T07:13:02;100730.06;;;10.47;87.57
55070;BME280;40967;52.070;8.596;2022-10-13T07:15:27;100736.34;;;10.57;87.90
55070;BME280;40967;52.070;8.596;2022-10-13T07:17:53;100732.31;;;10.60;88.19
55070;BME280;40967;52.070;8.596;2022-10-13T07:20:22;100739.38;;;10.66;88.49
55070;BME280;40967;52.070;8.596;2022-10-13T07:22:52;100732.06;;;10.66;88.53
55070;BME280;40967;52.070;8.596;2022-10-13T07:25:17;100743.47;;;10.73;88.59
55070;BME280;40967;52.070;8.596;2022-10-13T07:27:42;100738.06;;;10.78;89.10
55070;BME280;40967;52.070;8.596;2022-10-13T07:30:11;100742.44;;;10.84;89.47
55070;BME280;40967;52.070;8.596;2022-10-13T07:32:38;100746.81;;;10.90;89.25
55070;BME280;40967;52.070;8.596;2022-10-13T07:35:06;100737.06;;;10.94;89.48
55070;BME280;40967;52.070;8.596;2022-10-13T07:37:32;100741.97;;;11.02;89.45
55070;BME280;40967;52.070;8.596;2022-10-13T07:39:57;100737.09;;;11.09;89.14
55070;BME280;40967;52.070;8.596;2022-10-13T07:42:24;100737.09;;;11.14;88.99
55070;BME280;40967;52.070;8.596;2022-10-13T07:44:50;100727.63;;;11.17;89.35
55070;BME280;40967;52.070;8.596;2022-10-13T07:47:15;100742.31;;;11.31;89.45
55070;BME280;40967;52.070;8.596;2022-10-13T07:49:40;100734.97;;;11.36;89.26
55070;BME280;40967;52.070;8.596;2022-10-13T07:52:06;100736.34;;;11.44;89.12
55070;BME280;40967;52.070;8.596;2022-10-13T07:54:31;100729.56;;;11.47;88.98
55070;BME280;40967;52.070;8.596;2022-10-13T07:56:56;100744.00;;;11.62;88.83
55070;BME280;40967;52.070;8.596;2022-10-13T07:59:22;100728.53;;;11.73;89.35
55070;BME280;40967;52.070;8.596;2022-10-13T08:01:47;100733.13;;;11.87;89.32
55070;BME280;40967;52.070;8.596;2022-10-13T08:04:13;100735.59;;;11.99;88.95
55070;BME280;40967;52.070;8.596;2022-10-13T08:06:38;100731.47;;;12.11;88.59
55070;BME280;40967;52.070;8.596;2022-10-13T08:09:04;100739.63;;;12.26;88.10
55070;BME280;40967;52.070;8.596;2022-10-13T08:11:30;100729.53;;;12.27;88.17
55070;BME280;40967;52.070;8.596;2022-10-13T08:13:55;100742.28;;;12.51;87.46
55070;BME280;40967;52.070;8.596;2022-10-13T08:16:25;100727.00;;;12.61;87.01
55070;BME280;40967;52.070;8.596;2022-10-13T08:18:51;100741.09;;;12.78;86.19
55070;BME280;40967;52.070;8.596;2022-10-13T08:21:18;100737.25;;;12.89;85.31
55070;BME280;40967;52.070;8.596;2022-10-13T08:23:43;100739.09;;;12.98;84.66
55070;BME280;40967;52.070;8.596;2022-10-13T08:26:19;100732.03;;;13.02;84.05
55070;BME280;40967;52.070;8.596;2022-10-13T08:28:46;100734.41;;;13.14;83.47
55070;BME280;40967;52.070;8.596;2022-10-13T08:31:11;100737.09;;;13.24;83.04
55070;BME280;40967;52.070;8.596;2022-10-13T08:33:37;100742.78;;;13.32;82.65
55070;BME280;40967;52.070;8.596;2022-10-13T08:36:02;100730.16;;;13.41;82.35
55070;BME280;40967;52.070;8.596;2022-10-13T08:38:28;100743.50;;;13.48;82.00
55070;BME280;40967;52.070;8.596;2022-10-13T08:40:54;100725.97;;;13.54;81.40
55070;BME280;40967;52.070;8.596;2022-10-13T08:43:22;100735.75;;;13.60;81.67
55070;BME280;40967;52.070;8.596;2022-10-13T08:45:55;100747.44;;;13.65;81.25
55070;BME280;40967;52.070;8.596;2022-10-13T08:48:29;100747.41;;;13.71;81.22
55070;BME280;40967;52.070;8.596;2022-10-13T08:51:00;100737.38;;;13.61;80.09
55070;BME280;40967;52.070;8.596;2022-10-13T08:53:37;100738.66;;;13.74;80.52
55070;BME280;40967;52.070;8.596;2022-10-13T08:56:24;100738.56;;;13.84;79.82
55070;BME280;40967;52.070;8.596;2022-10-13T09:01:35;100731.06;;;13.99;78.73
55070;BME280;40967;52.070;8.596;2022-10-13T09:06:47;100731.78;;;14.10;77.79
55070;BME280;40967;52.070;8.596;2022-10-13T09:09:17;100702.47;;;13.97;77.23
55070;BME280;40967;52.070;8.596;2022-10-13T09:11:45;100732.22;;;14.22;77.08
55070;BME280;40967;52.070;8.596;2022-10-13T09:14:21;100731.03;;;14.33;76.63
55070;BME280;40967;52.070;8.596;2022-10-13T09:16:51;100732.03;;;14.42;76.46
55070;BME280;40967;52.070;8.596;2022-10-13T09:19:29;100735.75;;;14.51;76.00
55070;BME280;40967;52.070;8.596;2022-10-13T09:27:41;100727.41;;;14.66;74.91
55070;BME280;40967;52.070;8.596;2022-10-13T09:35:44;100711.41;;;14.78;73.93
55070;BME280;40967;52.070;8.596;2022-10-13T09:38:18;100717.25;;;14.90;73.58
55070;BME280;40967;52.070;8.596;2022-10-13T09:40:59;100725.38;;;14.95;73.04
55070;BME280;40967;52.070;8.596;2022-10-13T09:46:01;100711.56;;;14.87;73.11
55070;BME280;40967;52.070;8.596;2022-10-13T09:48:30;100706.78;;;14.97;72.99
55070;BME280;40967;52.070;8.596;2022-10-13T09:50:57;100705.81;;;15.07;72.77
55070;BME280;40967;52.070;8.596;2022-10-13T09:53:44;100708.66;;;15.20;72.96
55070;BME280;40967;52.070;8.596;2022-10-13T09:56:42;100698.34;;;15.31;72.21
55070;BME280;40967;52.070;8.596;2022-10-13T10:01:42;100689.16;;;15.45;71.27
55070;BME280;40967;52.070;8.596;2022-10-13T10:04:30;100698.63;;;15.53;70.72
55070;BME280;40967;52.070;8.596;2022-10-13T10:06:59;100706.00;;;15.52;71.13
55070;BME280;40967;52.070;8.596;2022-10-13T10:09:44;100698.91;;;15.51;71.14
55070;BME280;40967;52.070;8.596;2022-10-13T10:12:18;100703.03;;;15.49;71.19
55070;BME280;40967;52.070;8.596;2022-10-13T10:14:46;100699.91;;;15.55;71.29
55070;BME280;40967;52.070;8.596;2022-10-13T10:25:34;100681.13;;;15.67;70.27
55070;BME280;40967;52.070;8.596;2022-10-13T10:30:35;100678.38;;;15.86;69.65
55070;BME280;40967;52.070;8.596;2022-10-13T10:33:20;100675.22;;;15.93;69.72
55070;BME280;40967;52.070;8.596;2022-10-13T10:36:12;100677.75;;;15.89;69.80
55070;BME280;40967;52.070;8.596;2022-10-13T10:38:47;100682.16;;;16.04;70.14
55070;BME280;40967;52.070;8.596;2022-10-13T10:47:20;100669.09;;;16.41;68.73
55070;BME280;40967;52.070;8.596;2022-10-13T10:49:49;100668.00;;;16.56;68.71
55070;BME280;40967;52.070;8.596;2022-10-13T11:00:34;100652.88;;;16.58;67.23
55070;BME280;40967;52.070;8.596;2022-10-13T11:03:21;100660.41;;;16.53;67.36
55070;BME280;40967;52.070;8.596;2022-10-13T11:16:32;100637.28;;;16.59;67.38
55070;BME280;40967;52.070;8.596;2022-10-13T11:37:31;100611.25;;;16.83;66.49
55070;BME280;40967;52.070;8.596;2022-10-13T11:40:12;100606.94;;;16.91;66.24
55070;BME280;40967;52.070;8.596;2022-10-13T11:55:50;100596.13;;;17.08;64.87
55070;BME280;40967;52.070;8.596;2022-10-13T11:58:22;100587.00;;;17.13;64.71
55070;BME280;40967;52.070;8.596;2022-10-13T12:00:56;100587.19;;;17.16;64.55
55070;BME280;40967;52.070;8.596;2022-10-13T12:03:32;100583.31;;;17.17;64.43
55070;BME280;40967;52.070;8.596;2022-10-13T12:06:16;100582.97;;;17.19;64.75
55070;BME280;40967;52.070;8.596;2022-10-13T12:08:49;100575.06;;;17.17;64.53
55070;BME280;40967;52.070;8.596;2022-10-13T12:11:25;100584.50;;;17.25;64.45
55070;BME280;40967;52.070;8.596;2022-10-13T12:13:52;100581.38;;;17.18;64.39
55070;BME280;40967;52.070;8.596;2022-10-13T12:16:17;100581.88;;;17.20;64.64
55070;BME280;40967;52.070;8.596;2022-10-13T12:18:43;100580.44;;;17.22;64.93
55070;BME280;40967;52.070;8.596;2022-10-13T12:23:36;100580.25;;;17.41;64.12
55070;BME280;40967;52.070;8.596;2022-10-13T12:26:02;100567.31;;;17.41;64.32
55070;BME280;40967;52.070;8.596;2022-10-13T12:28:49;100575.25;;;17.43;64.05
55070;BME280;40967;52.070;8.596;2022-10-13T12:31:18;100573.13;;;17.40;63.78
55070;BME280;40967;52.070;8.596;2022-10-13T12:33:51;100575.56;;;17.41;63.65
55070;BME280;40967;52.070;8.596;2022-10-13T12:36:19;100573.22;;;17.48;63.51
55070;BME280;40967;52.070;8.596;2022-10-13T12:38:50;100565.91;;;17.44;63.40
55070;BME280;40967;52.070;8.596;2022-10-13T12:41:21;100554.88;;;17.35;63.48
55070;BME280;40967;52.070;8.596;2022-10-13T12:43:49;100565.09;;;17.43;63.69
55070;BME280;40967;52.070;8.596;2022-10-13T12:46:43;100563.25;;;17.52;63.58
55070;BME280;40967;52.070;8.596;2022-10-13T12:51:37;100558.84;;;17.73;62.56
55070;BME280;40967;52.070;8.596;2022-10-13T12:54:45;100551.53;;;17.99;62.02
55070;BME280;40967;52.070;8.596;2022-10-13T12:59:44;100542.88;;;18.32;60.53
55070;BME280;40967;52.070;8.596;2022-10-13T13:02:23;100547.97;;;18.47;59.50
55070;BME280;40967;52.070;8.596;2022-10-13T13:04:51;100543.75;;;18.66;59.01
55070;BME280;40967;52.070;8.596;2022-10-13T13:07:35;100551.06;;;18.79;58.76
55070;BME280;40967;52.070;8.596;2022-10-13T13:12:35;100550.41;;;18.91;58.90
55070;BME280;40967;52.070;8.596;2022-10-13T13:15:31;100537.16;;;18.93;58.62
55070;BME280;40967;52.070;8.596;2022-10-13T13:20:49;100539.88;;;19.18;57.91
55070;BME280;40967;52.070;8.596;2022-10-13T13:23:14;100536.94;;;19.23;57.84
55070;BME280;40967;52.070;8.596;2022-10-13T13:25:43;100539.38;;;19.25;57.48
55070;BME280;40967;52.070;8.596;2022-10-13T13:28:13;100544.09;;;19.07;57.42
55070;BME280;40967;52.070;8.596;2022-10-13T13:31:09;100549.13;;;18.97;57.50
55070;BME280;40967;52.070;8.596;2022-10-13T13:33:56;100539.41;;;18.91;57.94
55070;BME280;40967;52.070;8.596;2022-10-13T13:36:23;100536.00;;;18.94;58.07
55070;BME280;40967;52.070;8.596;2022-10-13T13:38:51;100526.47;;;19.00;58.59
55070;BME280;40967;52.070;8.596;2022-10-13T13:41:18;100523.72;;;19.08;58.84
55070;BME280;40967;52.070;8.596;2022-10-13T13:43:44;100525.16;;;19.23;58.35
55070;BME280;40967;52.070;8.596;2022-10-13T13:46:24;100521.59;;;19.31;57.65
55070;BME280;40967;52.070;8.596;2022-10-13T13:48:50;100522.91;;;19.34;57.43
55070;BME280;40967;52.070;8.596;2022-10-13T13:51:16;100510.25;;;19.33;57.66
55070;BME280;40967;52.070;8.596;2022-10-13T13:53:42;100519.16;;;19.38;56.99
55070;BME280;40967;52.070;8.596;2022-10-13T13:56:12;100530.00;;;19.26;57.03
55070;BME280;40967;52.070;8.596;2022-10-13T13:58:45;100511.09;;;19.16;57.28
55070;BME280;40967;52.070;8.596;2022-10-13T14:01:16;100517.06;;;19.09;57.84
55070;BME280;40967;52.070;8.596;2022-10-13T14:04:12;100518.03;;;19.13;57.73
55070;BME280;40967;52.070;8.596;2022-10-13T14:06:38;100505.09;;;19.14;57.20
55070;BME280;40967;52.070;8.596;2022-10-13T14:09:04;100519.66;;;19.23;57.24
55070;BME280;40967;52.070;8.596;2022-10-13T14:11:29;100499.94;;;19.04;56.77
55070;BME280;40967;52.070;8.596;2022-10-13T14:13:57;100509.78;;;19.05;56.78
55070;BME280;40967;52.070;8.596;2022-10-13T14:16:27;100498.81;;;18.96;57.07
55070;BME280;40967;52.070;8.596;2022-10-13T14:18:58;100504.16;;;18.93;57.20
55070;BME280;40967;52.070;8.596;2022-10-13T14:21:24;100501.72;;;18.91;56.87
55070;BME280;40967;52.070;8.596;2022-10-13T14:23:50;100487.81;;;18.88;56.61
55070;BME280;40967;52.070;8.596;2022-10-13T14:26:15;100501.25;;;18.81;56.77
55070;BME280;40967;52.070;8.596;2022-10-13T14:28:42;100503.34;;;18.67;57.07
55070;BME280;40967;52.070;8.596;2022-10-13T14:31:08;100496.09;;;18.54;57.30
55070;BME280;40967;52.070;8.596;2022-10-13T14:33:33;100487.00;;;18.36;57.21
55070;BME280;40967;52.070;8.596;2022-10-13T14:36:00;100501.50;;;18.37;57.33
55070;BME280;40967;52.070;8.596;2022-10-13T14:38:26;100502.31;;;18.29;57.63
55070;BME280;40967;52.070;8.596;2022-10-13T14:40:51;100483.72;;;18.08;57.88
55070;BME280;40967;52.070;8.596;2022-10-13T14:43:17;100496.44;;;17.96;58.13
55070;BME280;40967;52.070;8.596;2022-10-13T14:45:42;100481.03;;;17.78;58.72
55070;BME280;40967;52.070;8.596;2022-10-13T14:48:07;100496.72;;;17.77;58.83
55070;BME280;40967;52.070;8.596;2022-10-13T14:50:33;100503.13;;;17.73;59.30
55070;BME280;40967;52.070;8.596;2022-10-13T14:52:58;100502.09;;;17.60;59.58
55070;BME280;40967;52.070;8.596;2022-10-13T14:55:26;100506.13;;;17.54;59.81
55070;BME280;40967;52.070;8.596;2022-10-13T14:57:51;100495.63;;;17.48;60.00
55070;BME280;40967;52.070;8.596;2022-10-13T15:00:17;100502.88;;;17.52;59.87
55070;BME280;40967;52.070;8.596;2022-10-13T15:02:42;100487.28;;;17.39;59.67
55070;BME280;40967;52.070;8.596;2022-10-13T15:05:08;100498.44;;;17.43;59.80
55070;BME280;40967;52.070;8.596;2022-10-13T15:07:33;100501.13;;;17.34;59.80
55070;BME280;40967;52.070;8.596;2022-10-13T15:09:58;100495.44;;;17.22;59.94